Hanjin Santana — 3EYU3 — position and weather

sailwx.info

Track history (hours):
 
Tides and Currents Weather Stations Pressure Air Temp Water Temp Dewpoint Dewpoint Depression Visibility Wind Speed Wind Dir Waves Ship Positions

Hanjin Santana

Last reported at 2015-May-02 22:17 UTC. Time now 2015-May-06 22:34 UTC.
Position N 01°13' E 103°53'.

Length 196 m; draft 13.3 m.

Type: Cargo ship. MMSI: 373673000.

Date/timePositionNaut miles runAvg speedWind from/ knotsBaromVisibWave heightAir tempDewpointWater temp
2015-May-02 22:17N 01°13' E 103°53'912.4
2015-May-02 21:33N 01°15' E 104°01'1311.4
2015-May-02 20:26N 01°18' E 104°14'3 0.2
2015-May-02 03:28N 01°16' E 104°11'1212.7
2015-May-02 02:33N 01°14' E 103°59'1212.1
2015-May-02 01:33N 01°10' E 103°48'7710.8
2015-May-01 18:26N 01°42' E 102°39'1011.5
2015-May-01 17:33N 01°47' E 102°30'1211.4
2015-May-01 16:31N 01°52' E 102°19'  
Track history (hours):
 
Tides and Currents Weather Stations Pressure Air Temp Water Temp Dewpoint Dewpoint Depression Visibility Wind Speed Wind Dir Waves Ship Positions

Hanjin Santana

Last reported at 2015-May-02 22:17 UTC. Time now 2015-May-06 22:34 UTC.
Position N 01°13' E 103°53'.

Length 196 m; draft 13.3 m.

Type: Cargo ship. MMSI: 373673000.

Date/timePositionNaut miles runAvg speedWind from/ knotsBaromVisibWave heightAir tempDewpointWater temp
2015-May-02 22:17N 01°13' E 103°53'912.4
2015-May-02 21:33N 01°15' E 104°01'1311.4
2015-May-02 20:26N 01°18' E 104°14'3 0.2
2015-May-02 03:28N 01°16' E 104°11'1212.7
2015-May-02 02:33N 01°14' E 103°59'1212.1
2015-May-02 01:33N 01°10' E 103°48'7710.8
2015-May-01 18:26N 01°42' E 102°39'1011.5
2015-May-01 17:33N 01°47' E 102°30'1211.4
2015-May-01 16:31N 01°52' E 102°19'  

Dump ship's entire track history